sensor_id;sensor_type;location;lat;lon;timestamp;temperature;humidity
21176;DHT22;10746;50.178;8.186;2022-07-23T00:01:00;20.20;99.90
21176;DHT22;10746;50.178;8.186;2022-07-23T00:03:27;19.90;99.90
21176;DHT22;10746;50.178;8.186;2022-07-23T00:05:53;20.00;99.90
21176;DHT22;10746;50.178;8.186;2022-07-23T00:08:20;19.90;99.90
21176;DHT22;10746;50.178;8.186;2022-07-23T00:10:47;19.90;99.90
21176;DHT22;10746;50.178;8.186;2022-07-23T00:13:14;19.90;99.90
21176;DHT22;10746;50.178;8.186;2022-07-23T00:15:42;19.90;99.90
21176;DHT22;10746;50.178;8.186;2022-07-23T00:18:08;19.80;99.90
21176;DHT22;10746;50.178;8.186;2022-07-23T00:20:35;19.70;99.90
21176;DHT22;10746;50.178;8.186;2022-07-23T00:23:02;19.50;99.90
21176;DHT22;10746;50.178;8.186;2022-07-23T00:25:28;19.60;99.90
21176;DHT22;10746;50.178;8.186;2022-07-23T00:27:55;19.60;99.90
21176;DHT22;10746;50.178;8.186;2022-07-23T00:30:22;19.40;99.90
21176;DHT22;10746;50.178;8.186;2022-07-23T00:32:53;19.50;99.90
21176;DHT22;10746;50.178;8.186;2022-07-23T00:35:20;19.40;99.90
21176;DHT22;10746;50.178;8.186;2022-07-23T00:37:47;19.40;99.90
21176;DHT22;10746;50.178;8.186;2022-07-23T00:40:15;19.50;99.90
21176;DHT22;10746;50.178;8.186;2022-07-23T00:42:41;19.30;99.90
21176;DHT22;10746;50.178;8.186;2022-07-23T00:45:09;19.20;99.90
21176;DHT22;10746;50.178;8.186;2022-07-23T00:47:36;19.10;99.90
21176;DHT22;10746;50.178;8.186;2022-07-23T00:50:05;19.00;99.90
21176;DHT22;10746;50.178;8.186;2022-07-23T00:52:34;19.00;99.90
21176;DHT22;10746;50.178;8.186;2022-07-23T00:55:03;19.00;99.90
21176;DHT22;10746;50.178;8.186;2022-07-23T00:57:30;18.80;99.90
21176;DHT22;10746;50.178;8.186;2022-07-23T00:59:57;18.80;99.90
21176;DHT22;10746;50.178;8.186;2022-07-23T01:02:24;18.80;99.90
21176;DHT22;10746;50.178;8.186;2022-07-23T01:04:51;18.80;99.90
21176;DHT22;10746;50.178;8.186;2022-07-23T01:07:20;18.80;99.90
21176;DHT22;10746;50.178;8.186;2022-07-23T01:09:47;18.90;99.90
21176;DHT22;10746;50.178;8.186;2022-07-23T01:12:13;18.90;99.90
21176;DHT22;10746;50.178;8.186;2022-07-23T01:14:40;18.90;99.90
21176;DHT22;10746;50.178;8.186;2022-07-23T01:17:07;18.90;99.90
21176;DHT22;10746;50.178;8.186;2022-07-23T01:19:34;18.90;99.90
21176;DHT22;10746;50.178;8.186;2022-07-23T01:22:02;19.00;99.90
21176;DHT22;10746;50.178;8.186;2022-07-23T01:24:31;18.90;99.90
21176;DHT22;10746;50.178;8.186;2022-07-23T01:26:57;19.00;99.90
21176;DHT22;10746;50.178;8.186;2022-07-23T01:29:24;18.90;99.90
21176;DHT22;10746;50.178;8.186;2022-07-23T01:31:51;18.80;99.90
21176;DHT22;10746;50.178;8.186;2022-07-23T01:34:17;19.00;99.90
21176;DHT22;10746;50.178;8.186;2022-07-23T01:36:44;18.80;99.90
21176;DHT22;10746;50.178;8.186;2022-07-23T01:39:11;18.90;99.90
21176;DHT22;10746;50.178;8.186;2022-07-23T01:41:39;18.80;99.90
21176;DHT22;10746;50.178;8.186;2022-07-23T01:44:06;18.70;99.90
21176;DHT22;10746;50.178;8.186;2022-07-23T01:46:32;18.70;99.90
21176;DHT22;10746;50.178;8.186;2022-07-23T01:48:59;18.70;99.90
21176;DHT22;10746;50.178;8.186;2022-07-23T01:51:26;18.60;99.90
21176;DHT22;10746;50.178;8.186;2022-07-23T01:53:53;18.50;99.90
21176;DHT22;10746;50.178;8.186;2022-07-23T01:56:19;18.40;99.90
21176;DHT22;10746;50.178;8.186;2022-07-23T01:58:48;18.40;99.90
21176;DHT22;10746;50.178;8.186;2022-07-23T02:01:15;18.30;99.90
21176;DHT22;10746;50.178;8.186;2022-07-23T02:03:42;18.20;99.90
21176;DHT22;10746;50.178;8.186;2022-07-23T02:06:08;18.10;99.90
21176;DHT22;10746;50.178;8.186;2022-07-23T02:08:35;18.20;99.90
21176;DHT22;10746;50.178;8.186;2022-07-23T02:11:02;18.20;99.90
21176;DHT22;10746;50.178;8.186;2022-07-23T02:13:28;18.20;99.90
21176;DHT22;10746;50.178;8.186;2022-07-23T02:15:56;17.90;99.90
21176;DHT22;10746;50.178;8.186;2022-07-23T02:18:23;17.90;99.90
21176;DHT22;10746;50.178;8.186;2022-07-23T02:20:50;17.90;99.90
21176;DHT22;10746;50.178;8.186;2022-07-23T02:23:16;17.90;99.90
21176;DHT22;10746;50.178;8.186;2022-07-23T02:25:43;17.80;99.90
21176;DHT22;10746;50.178;8.186;2022-07-23T02:28:10;17.70;99.90
21176;DHT22;10746;50.178;8.186;2022-07-23T02:30:36;17.80;99.90
21176;DHT22;10746;50.178;8.186;2022-07-23T02:33:06;17.80;99.90
21176;DHT22;10746;50.178;8.186;2022-07-23T02:35:32;17.80;99.90
21176;DHT22;10746;50.178;8.186;2022-07-23T02:37:59;17.80;99.90
21176;DHT22;10746;50.178;8.186;2022-07-23T02:40:26;17.70;99.90
21176;DHT22;10746;50.178;8.186;2022-07-23T02:42:53;17.80;99.90
21176;DHT22;10746;50.178;8.186;2022-07-23T02:45:19;17.70;99.90
21176;DHT22;10746;50.178;8.186;2022-07-23T02:47:46;17.60;99.90
21176;DHT22;10746;50.178;8.186;2022-07-23T02:50:14;17.60;99.90
21176;DHT22;10746;50.178;8.186;2022-07-23T02:52:41;17.50;99.90
21176;DHT22;10746;50.178;8.186;2022-07-23T02:55:08;17.40;99.90
21176;DHT22;10746;50.178;8.186;2022-07-23T02:57:36;17.40;99.90
21176;DHT22;10746;50.178;8.186;2022-07-23T03:00:05;17.40;99.90
21176;DHT22;10746;50.178;8.186;2022-07-23T03:02:32;17.20;99.90
21176;DHT22;10746;50.178;8.186;2022-07-23T03:04:58;17.20;99.90
21176;DHT22;10746;50.178;8.186;2022-07-23T03:07:26;17.20;99.90
21176;DHT22;10746;50.178;8.186;2022-07-23T03:09:53;17.10;99.90
21176;DHT22;10746;50.178;8.186;2022-07-23T03:12:20;17.00;99.90
21176;DHT22;10746;50.178;8.186;2022-07-23T03:14:46;17.10;99.90
21176;DHT22;10746;50.178;8.186;2022-07-23T03:17:13;17.30;99.90
21176;DHT22;10746;50.178;8.186;2022-07-23T03:19:40;17.30;99.90
21176;DHT22;10746;50.178;8.186;2022-07-23T03:22:07;17.30;99.90
21176;DHT22;10746;50.178;8.186;2022-07-23T03:24:35;17.40;99.90
21176;DHT22;10746;50.178;8.186;2022-07-23T03:27:20;17.50;99.90
21176;DHT22;10746;50.178;8.186;2022-07-23T03:29:47;17.40;99.90
21176;DHT22;10746;50.178;8.186;2022-07-23T03:32:13;17.30;99.90
21176;DHT22;10746;50.178;8.186;2022-07-23T03:34:40;17.20;99.90
21176;DHT22;10746;50.178;8.186;2022-07-23T03:37:07;17.20;99.90
21176;DHT22;10746;50.178;8.186;2022-07-23T03:39:35;17.20;99.90
21176;DHT22;10746;50.178;8.186;2022-07-23T03:42:02;17.10;99.90
21176;DHT22;10746;50.178;8.186;2022-07-23T03:44:29;17.10;99.90
21176;DHT22;10746;50.178;8.186;2022-07-23T03:46:55;17.00;99.90
21176;DHT22;10746;50.178;8.186;2022-07-23T03:49:22;17.10;99.90
21176;DHT22;10746;50.178;8.186;2022-07-23T03:51:49;17.10;99.90
21176;DHT22;10746;50.178;8.186;2022-07-23T03:54:16;17.00;99.90
21176;DHT22;10746;50.178;8.186;2022-07-23T03:56:44;17.10;99.90
21176;DHT22;10746;50.178;8.186;2022-07-23T03:59:11;17.20;99.90
21176;DHT22;10746;50.178;8.186;2022-07-23T04:01:37;17.20;99.90
21176;DHT22;10746;50.178;8.186;2022-07-23T04:04:04;17.30;99.90
21176;DHT22;10746;50.178;8.186;2022-07-23T04:06:31;17.20;99.90
21176;DHT22;10746;50.178;8.186;2022-07-23T04:08:58;17.10;99.90
21176;DHT22;10746;50.178;8.186;2022-07-23T04:11:24;17.20;99.90
21176;DHT22;10746;50.178;8.186;2022-07-23T04:13:52;17.10;99.90
21176;DHT22;10746;50.178;8.186;2022-07-23T04:16:19;17.40;99.90
21176;DHT22;10746;50.178;8.186;2022-07-23T04:18:46;17.50;99.90
21176;DHT22;10746;50.178;8.186;2022-07-23T04:21:12;17.50;99.90
21176;DHT22;10746;50.178;8.186;2022-07-23T04:23:39;17.40;99.90
21176;DHT22;10746;50.178;8.186;2022-07-23T04:26:06;17.50;99.90
21176;DHT22;10746;50.178;8.186;2022-07-23T04:28:32;17.50;99.90
21176;DHT22;10746;50.178;8.186;2022-07-23T04:31:00;17.40;99.90
21176;DHT22;10746;50.178;8.186;2022-07-23T04:33:27;17.40;99.90
21176;DHT22;10746;50.178;8.186;2022-07-23T04:35:54;17.40;99.90
21176;DHT22;10746;50.178;8.186;2022-07-23T04:38:21;17.50;99.90
21176;DHT22;10746;50.178;8.186;2022-07-23T04:40:47;17.40;99.90
21176;DHT22;10746;50.178;8.186;2022-07-23T04:43:14;17.50;99.90
21176;DHT22;10746;50.178;8.186;2022-07-23T04:45:41;17.40;99.90
21176;DHT22;10746;50.178;8.186;2022-07-23T04:48:09;17.50;99.90
21176;DHT22;10746;50.178;8.186;2022-07-23T04:50:35;17.50;99.90
21176;DHT22;10746;50.178;8.186;2022-07-23T04:53:02;17.60;99.90
21176;DHT22;10746;50.178;8.186;2022-07-23T04:55:29;17.70;99.90
21176;DHT22;10746;50.178;8.186;2022-07-23T04:57:56;17.60;99.90
21176;DHT22;10746;50.178;8.186;2022-07-23T05:00:22;17.60;99.90
21176;DHT22;10746;50.178;8.186;2022-07-23T05:02:49;17.50;99.90
21176;DHT22;10746;50.178;8.186;2022-07-23T05:05:17;17.40;99.90
21176;DHT22;10746;50.178;8.186;2022-07-23T05:07:44;17.40;99.90
21176;DHT22;10746;50.178;8.186;2022-07-23T05:10:10;17.40;99.90
21176;DHT22;10746;50.178;8.186;2022-07-23T05:12:37;17.30;99.90
21176;DHT22;10746;50.178;8.186;2022-07-23T05:15:04;17.30;99.90
21176;DHT22;10746;50.178;8.186;2022-07-23T05:17:31;17.40;99.90
21176;DHT22;10746;50.178;8.186;2022-07-23T05:19:58;17.50;99.90
21176;DHT22;10746;50.178;8.186;2022-07-23T05:22:26;17.50;99.90
21176;DHT22;10746;50.178;8.186;2022-07-23T05:24:53;17.70;99.90
21176;DHT22;10746;50.178;8.186;2022-07-23T05:27:19;17.70;99.90
21176;DHT22;10746;50.178;8.186;2022-07-23T05:29:46;17.80;99.90
21176;DHT22;10746;50.178;8.186;2022-07-23T05:32:13;17.90;99.90
21176;DHT22;10746;50.178;8.186;2022-07-23T05:34:39;18.10;99.90
21176;DHT22;10746;50.178;8.186;2022-07-23T05:37:06;18.20;99.90
21176;DHT22;10746;50.178;8.186;2022-07-23T05:39:34;18.20;99.90
21176;DHT22;10746;50.178;8.186;2022-07-23T05:42:01;18.10;99.90
21176;DHT22;10746;50.178;8.186;2022-07-23T05:44:27;18.00;99.90
21176;DHT22;10746;50.178;8.186;2022-07-23T05:46:54;18.20;99.90
21176;DHT22;10746;50.178;8.186;2022-07-23T05:49:22;18.20;99.90
21176;DHT22;10746;50.178;8.186;2022-07-23T05:51:49;18.40;99.90
21176;DHT22;10746;50.178;8.186;2022-07-23T05:54:15;18.70;99.90
21176;DHT22;10746;50.178;8.186;2022-07-23T05:56:43;18.50;99.90
21176;DHT22;10746;50.178;8.186;2022-07-23T05:59:10;18.70;99.90
21176;DHT22;10746;50.178;8.186;2022-07-23T06:01:38;18.70;99.90
21176;DHT22;10746;50.178;8.186;2022-07-23T06:04:05;18.80;99.90
21176;DHT22;10746;50.178;8.186;2022-07-23T06:06:31;19.10;99.90
21176;DHT22;10746;50.178;8.186;2022-07-23T06:08:58;19.30;99.90
21176;DHT22;10746;50.178;8.186;2022-07-23T06:11:25;19.60;99.90
21176;DHT22;10746;50.178;8.186;2022-07-23T06:13:53;19.90;99.90
21176;DHT22;10746;50.178;8.186;2022-07-23T06:16:19;19.60;99.90
21176;DHT22;10746;50.178;8.186;2022-07-23T06:18:46;19.40;99.90
21176;DHT22;10746;50.178;8.186;2022-07-23T06:21:13;19.70;99.90
21176;DHT22;10746;50.178;8.186;2022-07-23T06:23:39;19.90;99.90
21176;DHT22;10746;50.178;8.186;2022-07-23T06:26:06;20.10;99.90
21176;DHT22;10746;50.178;8.186;2022-07-23T06:28:33;19.90;99.90
21176;DHT22;10746;50.178;8.186;2022-07-23T06:31:01;20.00;99.90
21176;DHT22;10746;50.178;8.186;2022-07-23T06:33:28;20.10;99.90
21176;DHT22;10746;50.178;8.186;2022-07-23T06:35:54;19.90;99.90
21176;DHT22;10746;50.178;8.186;2022-07-23T06:38:21;19.90;99.90
21176;DHT22;10746;50.178;8.186;2022-07-23T06:40:48;20.00;99.90
21176;DHT22;10746;50.178;8.186;2022-07-23T06:43:14;20.10;99.90
21176;DHT22;10746;50.178;8.186;2022-07-23T06:45:41;20.30;99.90
21176;DHT22;10746;50.178;8.186;2022-07-23T06:48:09;20.20;99.90
21176;DHT22;10746;50.178;8.186;2022-07-23T06:50:36;19.80;99.90
21176;DHT22;10746;50.178;8.186;2022-07-23T06:53:02;19.70;99.90
21176;DHT22;10746;50.178;8.186;2022-07-23T06:55:29;19.80;99.90
21176;DHT22;10746;50.178;8.186;2022-07-23T06:57:56;20.00;99.90
21176;DHT22;10746;50.178;8.186;2022-07-23T07:00:23;20.10;99.90
21176;DHT22;10746;50.178;8.186;2022-07-23T07:02:53;20.10;99.90
21176;DHT22;10746;50.178;8.186;2022-07-23T07:05:21;20.10;99.90
21176;DHT22;10746;50.178;8.186;2022-07-23T07:07:50;20.20;99.90
21176;DHT22;10746;50.178;8.186;2022-07-23T07:10:17;20.20;99.90
21176;DHT22;10746;50.178;8.186;2022-07-23T07:12:45;20.40;99.90
21176;DHT22;10746;50.178;8.186;2022-07-23T07:15:11;20.60;99.90
21176;DHT22;10746;50.178;8.186;2022-07-23T07:17:38;20.70;99.90
21176;DHT22;10746;50.178;8.186;2022-07-23T07:20:06;20.70;99.90
21176;DHT22;10746;50.178;8.186;2022-07-23T07:22:34;20.90;99.90
21176;DHT22;10746;50.178;8.186;2022-07-23T07:25:01;20.80;99.90
21176;DHT22;10746;50.178;8.186;2022-07-23T07:27:28;21.00;99.90
21176;DHT22;10746;50.178;8.186;2022-07-23T07:29:55;21.30;99.90
21176;DHT22;10746;50.178;8.186;2022-07-23T07:32:21;21.60;99.90
21176;DHT22;10746;50.178;8.186;2022-07-23T07:34:48;21.70;99.90
21176;DHT22;10746;50.178;8.186;2022-07-23T07:37:15;21.80;99.90
21176;DHT22;10746;50.178;8.186;2022-07-23T07:39:43;22.20;99.90
21176;DHT22;10746;50.178;8.186;2022-07-23T07:42:09;22.60;99.90
21176;DHT22;10746;50.178;8.186;2022-07-23T07:44:36;23.10;99.90
21176;DHT22;10746;50.178;8.186;2022-07-23T07:47:03;23.10;99.90
21176;DHT22;10746;50.178;8.186;2022-07-23T07:49:30;22.70;99.90
21176;DHT22;10746;50.178;8.186;2022-07-23T07:51:56;22.70;99.90
21176;DHT22;10746;50.178;8.186;2022-07-23T07:54:23;22.70;99.90
21176;DHT22;10746;50.178;8.186;2022-07-23T07:56:51;23.00;99.90
21176;DHT22;10746;50.178;8.186;2022-07-23T07:59:18;22.90;99.90
21176;DHT22;10746;50.178;8.186;2022-07-23T08:01:44;23.10;99.90
21176;DHT22;10746;50.178;8.186;2022-07-23T08:04:11;23.00;99.90
21176;DHT22;10746;50.178;8.186;2022-07-23T08:06:38;23.00;99.90
21176;DHT22;10746;50.178;8.186;2022-07-23T08:09:04;23.40;99.90
21176;DHT22;10746;50.178;8.186;2022-07-23T08:11:31;23.50;99.90
21176;DHT22;10746;50.178;8.186;2022-07-23T08:14:00;23.70;99.90
21176;DHT22;10746;50.178;8.186;2022-07-23T08:16:26;23.80;99.90
21176;DHT22;10746;50.178;8.186;2022-07-23T08:18:53;24.00;99.90
21176;DHT22;10746;50.178;8.186;2022-07-23T08:21:20;24.10;99.90
21176;DHT22;10746;50.178;8.186;2022-07-23T08:23:47;24.10;99.90
21176;DHT22;10746;50.178;8.186;2022-07-23T08:26:14;24.00;99.90
21176;DHT22;10746;50.178;8.186;2022-07-23T08:28:40;24.40;99.90
21176;DHT22;10746;50.178;8.186;2022-07-23T08:31:08;24.40;99.90
21176;DHT22;10746;50.178;8.186;2022-07-23T08:33:37;24.40;99.90
21176;DHT22;10746;50.178;8.186;2022-07-23T08:36:04;24.30;99.90
21176;DHT22;10746;50.178;8.186;2022-07-23T08:38:32;24.20;99.90
21176;DHT22;10746;50.178;8.186;2022-07-23T08:40:59;24.20;99.90
21176;DHT22;10746;50.178;8.186;2022-07-23T08:43:28;24.20;99.90
21176;DHT22;10746;50.178;8.186;2022-07-23T08:45:56;24.20;99.90
21176;DHT22;10746;50.178;8.186;2022-07-23T08:48:26;24.40;99.90
21176;DHT22;10746;50.178;8.186;2022-07-23T08:50:54;24.20;99.90
21176;DHT22;10746;50.178;8.186;2022-07-23T08:53:23;24.20;99.90
21176;DHT22;10746;50.178;8.186;2022-07-23T08:55:52;24.40;99.90
21176;DHT22;10746;50.178;8.186;2022-07-23T08:58:20;23.20;99.90
21176;DHT22;10746;50.178;8.186;2022-07-23T09:00:47;23.20;99.90
21176;DHT22;10746;50.178;8.186;2022-07-23T09:03:16;23.70;99.90
21176;DHT22;10746;50.178;8.186;2022-07-23T09:05:45;23.60;99.90
21176;DHT22;10746;50.178;8.186;2022-07-23T09:08:13;23.90;99.90
21176;DHT22;10746;50.178;8.186;2022-07-23T09:10:48;24.30;99.90
21176;DHT22;10746;50.178;8.186;2022-07-23T09:13:33;24.40;99.90
21176;DHT22;10746;50.178;8.186;2022-07-23T09:16:03;24.30;99.90
21176;DHT22;10746;50.178;8.186;2022-07-23T09:18:36;23.80;99.90
21176;DHT22;10746;50.178;8.186;2022-07-23T09:21:17;24.10;99.90
21176;DHT22;10746;50.178;8.186;2022-07-23T09:23:46;24.50;99.90
21176;DHT22;10746;50.178;8.186;2022-07-23T09:26:24;24.70;99.90
21176;DHT22;10746;50.178;8.186;2022-07-23T09:28:55;24.60;99.90
21176;DHT22;10746;50.178;8.186;2022-07-23T09:31:23;24.70;99.90
21176;DHT22;10746;50.178;8.186;2022-07-23T09:33:50;24.80;99.90
21176;DHT22;10746;50.178;8.186;2022-07-23T09:36:27;24.90;99.90
21176;DHT22;10746;50.178;8.186;2022-07-23T09:38:54;24.80;99.90
21176;DHT22;10746;50.178;8.186;2022-07-23T09:41:21;24.90;99.90
21176;DHT22;10746;50.178;8.186;2022-07-23T09:43:55;25.00;99.90
21176;DHT22;10746;50.178;8.186;2022-07-23T09:46:23;25.10;99.90
21176;DHT22;10746;50.178;8.186;2022-07-23T09:48:50;25.00;99.90
21176;DHT22;10746;50.178;8.186;2022-07-23T09:51:18;24.90;99.90
21176;DHT22;10746;50.178;8.186;2022-07-23T09:53:49;24.40;99.90
21176;DHT22;10746;50.178;8.186;2022-07-23T09:56:16;24.30;99.90
21176;DHT22;10746;50.178;8.186;2022-07-23T09:58:44;24.50;99.90
21176;DHT22;10746;50.178;8.186;2022-07-23T10:01:14;24.70;99.90
21176;DHT22;10746;50.178;8.186;2022-07-23T10:03:41;25.00;99.90
21176;DHT22;10746;50.178;8.186;2022-07-23T10:06:09;25.10;99.90
21176;DHT22;10746;50.178;8.186;2022-07-23T10:08:38;25.30;99.90
21176;DHT22;10746;50.178;8.186;2022-07-23T10:11:08;25.40;99.90
21176;DHT22;10746;50.178;8.186;2022-07-23T10:13:36;25.50;99.90
21176;DHT22;10746;50.178;8.186;2022-07-23T10:16:21;25.20;99.90
21176;DHT22;10746;50.178;8.186;2022-07-23T10:18:48;24.80;99.90
21176;DHT22;10746;50.178;8.186;2022-07-23T10:21:21;24.90;99.90
21176;DHT22;10746;50.178;8.186;2022-07-23T10:24:04;25.00;99.90
21176;DHT22;10746;50.178;8.186;2022-07-23T10:26:43;25.30;99.90
21176;DHT22;10746;50.178;8.186;2022-07-23T10:29:22;25.60;99.90
21176;DHT22;10746;50.178;8.186;2022-07-23T10:31:56;25.70;99.90
21176;DHT22;10746;50.178;8.186;2022-07-23T10:34:34;25.80;99.90
21176;DHT22;10746;50.178;8.186;2022-07-23T10:37:11;25.90;99.90
21176;DHT22;10746;50.178;8.186;2022-07-23T10:39:38;26.10;99.90
21176;DHT22;10746;50.178;8.186;2022-07-23T10:42:10;25.90;99.90
21176;DHT22;10746;50.178;8.186;2022-07-23T10:44:42;26.10;99.90
21176;DHT22;10746;50.178;8.186;2022-07-23T10:47:10;26.20;99.90
21176;DHT22;10746;50.178;8.186;2022-07-23T10:49:49;26.20;99.90
21176;DHT22;10746;50.178;8.186;2022-07-23T10:52:24;25.70;99.90
21176;DHT22;10746;50.178;8.186;2022-07-23T10:54:53;25.10;99.90
21176;DHT22;10746;50.178;8.186;2022-07-23T10:57:22;25.20;99.90
21176;DHT22;10746;50.178;8.186;2022-07-23T11:00:12;25.60;99.90
21176;DHT22;10746;50.178;8.186;2022-07-23T11:02:40;25.80;99.90
21176;DHT22;10746;50.178;8.186;2022-07-23T11:05:09;26.30;99.90
21176;DHT22;10746;50.178;8.186;2022-07-23T11:10:34;27.00;99.90
21176;DHT22;10746;50.178;8.186;2022-07-23T11:13:30;27.60;99.90
21176;DHT22;10746;50.178;8.186;2022-07-23T11:16:23;26.60;99.90
21176;DHT22;10746;50.178;8.186;2022-07-23T11:19:03;26.20;99.90
21176;DHT22;10746;50.178;8.186;2022-07-23T11:21:49;25.70;99.90
21176;DHT22;10746;50.178;8.186;2022-07-23T11:24:21;25.90;99.90
21176;DHT22;10746;50.178;8.186;2022-07-23T11:26:52;25.80;99.90
21176;DHT22;10746;50.178;8.186;2022-07-23T11:32:32;26.40;99.90
21176;DHT22;10746;50.178;8.186;2022-07-23T11:35:01;26.20;99.90
21176;DHT22;10746;50.178;8.186;2022-07-23T11:37:39;26.30;99.90
21176;DHT22;10746;50.178;8.186;2022-07-23T11:40:08;26.30;99.90
21176;DHT22;10746;50.178;8.186;2022-07-23T11:42:37;26.50;99.90
21176;DHT22;10746;50.178;8.186;2022-07-23T11:45:08;26.90;99.90
21176;DHT22;10746;50.178;8.186;2022-07-23T11:47:34;26.60;99.90
21176;DHT22;10746;50.178;8.186;2022-07-23T11:50:03;25.90;99.90
21176;DHT22;10746;50.178;8.186;2022-07-23T11:52:31;25.70;99.90
21176;DHT22;10746;50.178;8.186;2022-07-23T11:54:59;25.70;99.90
21176;DHT22;10746;50.178;8.186;2022-07-23T11:57:28;25.70;99.90
21176;DHT22;10746;50.178;8.186;2022-07-23T11:59:57;26.10;99.90
21176;DHT22;10746;50.178;8.186;2022-07-23T12:02:28;26.50;99.90
21176;DHT22;10746;50.178;8.186;2022-07-23T12:04:55;26.60;99.90
21176;DHT22;10746;50.178;8.186;2022-07-23T12:07:26;27.00;99.90
21176;DHT22;10746;50.178;8.186;2022-07-23T12:09:54;27.10;99.90
21176;DHT22;10746;50.178;8.186;2022-07-23T12:12:21;27.50;99.90
21176;DHT22;10746;50.178;8.186;2022-07-23T12:14:49;27.60;99.90
21176;DHT22;10746;50.178;8.186;2022-07-23T12:17:16;28.10;99.90
21176;DHT22;10746;50.178;8.186;2022-07-23T12:19:45;27.80;99.90
21176;DHT22;10746;50.178;8.186;2022-07-23T12:22:13;26.70;99.90
21176;DHT22;10746;50.178;8.186;2022-07-23T12:24:53;26.70;99.90
21176;DHT22;10746;50.178;8.186;2022-07-23T12:27:21;26.20;99.90
21176;DHT22;10746;50.178;8.186;2022-07-23T12:29:47;26.70;99.90
21176;DHT22;10746;50.178;8.186;2022-07-23T12:32:19;27.10;99.90
21176;DHT22;10746;50.178;8.186;2022-07-23T12:34:50;27.50;99.90
21176;DHT22;10746;50.178;8.186;2022-07-23T12:37:28;27.80;99.90
21176;DHT22;10746;50.178;8.186;2022-07-23T12:39:55;27.70;99.90
21176;DHT22;10746;50.178;8.186;2022-07-23T12:42:22;28.00;99.90
21176;DHT22;10746;50.178;8.186;2022-07-23T12:45:07;28.40;99.90
21176;DHT22;10746;50.178;8.186;2022-07-23T12:47:55;28.80;99.90
21176;DHT22;10746;50.178;8.186;2022-07-23T12:50:43;29.20;99.90
21176;DHT22;10746;50.178;8.186;2022-07-23T12:53:12;29.50;99.90
21176;DHT22;10746;50.178;8.186;2022-07-23T12:55:40;29.80;99.90
21176;DHT22;10746;50.178;8.186;2022-07-23T12:58:15;30.00;99.90
21176;DHT22;10746;50.178;8.186;2022-07-23T13:01:03;30.20;99.90
21176;DHT22;10746;50.178;8.186;2022-07-23T13:03:32;30.40;99.90
21176;DHT22;10746;50.178;8.186;2022-07-23T13:06:02;29.70;99.90
21176;DHT22;10746;50.178;8.186;2022-07-23T13:08:31;30.00;99.90
21176;DHT22;10746;50.178;8.186;2022-07-23T13:10:58;28.90;99.90
21176;DHT22;10746;50.178;8.186;2022-07-23T13:13:26;28.80;99.90
21176;DHT22;10746;50.178;8.186;2022-07-23T13:15:54;29.00;99.90
21176;DHT22;10746;50.178;8.186;2022-07-23T13:18:21;28.80;99.90
21176;DHT22;10746;50.178;8.186;2022-07-23T13:20:49;29.40;99.90
21176;DHT22;10746;50.178;8.186;2022-07-23T13:23:17;30.20;99.90
21176;DHT22;10746;50.178;8.186;2022-07-23T13:25:44;30.90;99.90
21176;DHT22;10746;50.178;8.186;2022-07-23T13:28:11;31.30;99.90
21176;DHT22;10746;50.178;8.186;2022-07-23T13:30:38;31.60;99.90
21176;DHT22;10746;50.178;8.186;2022-07-23T13:33:05;31.00;99.90
21176;DHT22;10746;50.178;8.186;2022-07-23T13:35:33;31.40;99.90
21176;DHT22;10746;50.178;8.186;2022-07-23T13:38:01;31.30;99.90
21176;DHT22;10746;50.178;8.186;2022-07-23T13:40:29;31.40;99.90
21176;DHT22;10746;50.178;8.186;2022-07-23T13:42:55;30.90;99.90
21176;DHT22;10746;50.178;8.186;2022-07-23T13:45:22;30.50;99.90
21176;DHT22;10746;50.178;8.186;2022-07-23T13:47:49;30.30;99.90
21176;DHT22;10746;50.178;8.186;2022-07-23T13:50:16;29.50;99.90
21176;DHT22;10746;50.178;8.186;2022-07-23T13:52:43;28.90;99.90
21176;DHT22;10746;50.178;8.186;2022-07-23T13:55:10;28.90;99.90
21176;DHT22;10746;50.178;8.186;2022-07-23T13:57:38;29.90;99.90
21176;DHT22;10746;50.178;8.186;2022-07-23T14:00:07;30.50;99.90
21176;DHT22;10746;50.178;8.186;2022-07-23T14:02:35;31.00;99.90
21176;DHT22;10746;50.178;8.186;2022-07-23T14:05:03;31.40;99.90
21176;DHT22;10746;50.178;8.186;2022-07-23T14:07:30;31.30;99.90
21176;DHT22;10746;50.178;8.186;2022-07-23T14:09:57;30.90;99.90
21176;DHT22;10746;50.178;8.186;2022-07-23T14:12:23;31.00;99.90
21176;DHT22;10746;50.178;8.186;2022-07-23T14:14:52;31.00;99.90
21176;DHT22;10746;50.178;8.186;2022-07-23T14:17:19;30.90;99.90
21176;DHT22;10746;50.178;8.186;2022-07-23T14:19:45;30.00;99.90
21176;DHT22;10746;50.178;8.186;2022-07-23T14:22:12;29.40;99.90
21176;DHT22;10746;50.178;8.186;2022-07-23T14:24:39;30.30;99.90
21176;DHT22;10746;50.178;8.186;2022-07-23T14:27:06;31.00;99.90
21176;DHT22;10746;50.178;8.186;2022-07-23T14:29:33;31.60;99.90
21176;DHT22;10746;50.178;8.186;2022-07-23T14:32:02;31.80;99.90
21176;DHT22;10746;50.178;8.186;2022-07-23T14:34:30;32.10;99.90
21176;DHT22;10746;50.178;8.186;2022-07-23T14:36:57;32.10;99.90
21176;DHT22;10746;50.178;8.186;2022-07-23T14:39:24;32.30;99.90
21176;DHT22;10746;50.178;8.186;2022-07-23T14:41:50;32.70;99.40
21176;DHT22;10746;50.178;8.186;2022-07-23T14:44:17;32.50;99.10
21176;DHT22;10746;50.178;8.186;2022-07-23T14:46:44;31.80;98.70
21176;DHT22;10746;50.178;8.186;2022-07-23T14:49:12;30.90;99.50
21176;DHT22;10746;50.178;8.186;2022-07-23T14:51:39;30.90;99.90
21176;DHT22;10746;50.178;8.186;2022-07-23T14:54:07;31.10;99.90
21176;DHT22;10746;50.178;8.186;2022-07-23T14:56:34;31.20;99.70
21176;DHT22;10746;50.178;8.186;2022-07-23T14:59:01;31.20;99.00
21176;DHT22;10746;50.178;8.186;2022-07-23T15:01:28;31.20;98.90
21176;DHT22;10746;50.178;8.186;2022-07-23T15:03:55;31.60;98.60
21176;DHT22;10746;50.178;8.186;2022-07-23T15:06:23;31.40;98.40
21176;DHT22;10746;50.178;8.186;2022-07-23T15:08:50;31.10;98.90
21176;DHT22;10746;50.178;8.186;2022-07-23T15:11:17;31.40;99.00
21176;DHT22;10746;50.178;8.186;2022-07-23T15:13:43;31.30;99.70
21176;DHT22;10746;50.178;8.186;2022-07-23T15:16:10;31.30;99.20
21176;DHT22;10746;50.178;8.186;2022-07-23T15:18:37;31.30;99.30
21176;DHT22;10746;50.178;8.186;2022-07-23T15:21:04;31.20;98.80
21176;DHT22;10746;50.178;8.186;2022-07-23T15:23:32;30.40;99.30
21176;DHT22;10746;50.178;8.186;2022-07-23T15:26:00;29.20;99.90
21176;DHT22;10746;50.178;8.186;2022-07-23T15:28:27;28.90;99.90
21176;DHT22;10746;50.178;8.186;2022-07-23T15:30:53;29.50;99.90
21176;DHT22;10746;50.178;8.186;2022-07-23T15:33:20;29.40;99.80
21176;DHT22;10746;50.178;8.186;2022-07-23T15:35:47;29.20;99.50
21176;DHT22;10746;50.178;8.186;2022-07-23T15:38:14;29.40;99.90
21176;DHT22;10746;50.178;8.186;2022-07-23T15:40:42;29.50;99.80
21176;DHT22;10746;50.178;8.186;2022-07-23T15:43:08;29.60;99.20